Time;durP1;ratioP1;P1;durP2;ratioP2;P2;SDS_P1;SDS_P2;PMS_P1;PMS_P2;Temp;Humidity;BMP_temperature;BMP_pressure;BME280_temperature;BME280_humidity;BME280_pressure;Samples;Min_cycle;Max_cycle;Signal;HPM_P1;HPM_P2
2023/07/19 00:01:38;;;;;;;9.98;3.40;;;;;;;23.98;52.61;94139.63;5075587;28;20017;-89
2023/07/19 00:04:04;;;;;;;6.22;2.90;;;;;;;23.93;52.54;94133.78;5075137;28;20035;-89
2023/07/19 00:06:29;;;;;;;8.18;3.40;;;;;;;23.86;52.71;94131.84;5075128;28;20017;-89
2023/07/19 00:08:55;;;;;;;8.93;4.97;;;;;;;23.79;52.80;94123.69;5074244;28;20013;-88
2023/07/19 00:11:21;;;;;;;5.50;3.38;;;;;;;23.78;53.33;94131.09;5075690;28;20013;-87
2023/07/19 00:13:46;;;;;;;11.50;3.67;;;;;;;23.75;53.21;94129.13;5076702;28;20013;-88
2023/07/19 00:16:12;;;;;;;12.63;3.92;;;;;;;23.71;53.47;94130.28;5076412;28;20283;-88
2023/07/19 00:18:38;;;;;;;7.70;3.78;;;;;;;23.69;53.61;94129.88;5075546;28;20017;-89
2023/07/19 00:21:04;;;;;;;13.27;3.92;;;;;;;23.63;53.60;94124.09;5075585;28;20039;-89
2023/07/19 00:23:29;;;;;;;8.20;3.42;;;;;;;23.60;53.78;94119.41;5073288;28;20025;-88
2023/07/19 00:25:54;;;;;;;8.05;3.45;;;;;;;23.59;53.65;94126.00;5072091;28;20021;-89
2023/07/19 00:28:20;;;;;;;8.60;3.50;;;;;;;23.50;53.64;94128.34;5070762;28;20047;-88
2023/07/19 00:30:45;;;;;;;6.82;3.42;;;;;;;23.40;53.70;94122.50;5071860;28;20024;-88
2023/07/19 00:33:11;;;;;;;12.35;3.55;;;;;;;23.40;53.86;94121.75;5071880;28;20025;-89
2023/07/19 00:35:43;;;;;;;6.13;3.88;;;;;;;23.31;53.98;94121.38;5071316;28;20025;-88
2023/07/19 00:38:08;;;;;;;8.38;3.33;;;;;;;23.29;54.15;94132.63;5070524;28;20049;-87
2023/07/19 00:40:34;;;;;;;6.93;3.42;;;;;;;23.26;53.97;94127.19;5070876;28;20025;-88
2023/07/19 00:42:59;;;;;;;5.22;3.17;;;;;;;23.26;53.72;94133.38;5070791;28;20021;-88
2023/07/19 00:45:26;;;;;;;7.68;3.35;;;;;;;23.27;52.61;94129.50;5070488;28;20017;-87
2023/07/19 00:47:53;;;;;;;8.82;3.50;;;;;;;23.28;51.90;94131.06;5066471;28;20036;-86
2023/07/19 00:50:19;;;;;;;15.15;3.85;;;;;;;23.23;52.32;94131.44;5067133;28;20343;-86
2023/07/19 00:52:45;;;;;;;11.45;3.47;;;;;;;23.23;52.45;94126.00;5062798;28;20115;-84
2023/07/19 00:55:11;;;;;;;8.07;3.28;;;;;;;23.15;52.86;94124.44;5066887;28;20087;-87
2023/07/19 00:57:37;;;;;;;9.43;3.38;;;;;;;23.18;53.30;94120.94;5067654;28;20061;-86
2023/07/19 01:00:04;;;;;;;8.57;3.58;;;;;;;23.24;53.68;94113.97;5062895;28;20040;-83
2023/07/19 01:02:30;;;;;;;8.85;3.97;;;;;;;23.22;53.84;94121.72;5063323;28;20032;-85
2023/07/19 01:04:55;;;;;;;5.45;3.28;;;;;;;23.17;53.86;94125.63;5064239;28;20029;-85
2023/07/19 01:07:21;;;;;;;5.53;3.38;;;;;;;23.12;52.95;94125.22;5069140;28;20373;-91
2023/07/19 01:09:48;;;;;;;7.93;3.85;;;;;;;23.07;53.27;94126.38;5069503;28;20096;-88
2023/07/19 01:12:14;;;;;;;6.28;3.47;;;;;;;22.96;53.04;94129.06;5068264;28;20013;-88
2023/07/19 01:14:42;;;;;;;7.70;3.72;;;;;;;22.80;53.26;94117.75;5066435;28;20044;-91
2023/07/19 01:17:07;;;;;;;7.38;3.88;;;;;;;22.77;53.21;94115.81;5063513;28;20020;-85
2023/07/19 01:19:33;;;;;;;8.57;3.97;;;;;;;22.80;53.28;94117.75;5062184;28;20032;-83
2023/07/19 01:21:59;;;;;;;6.30;3.30;;;;;;;22.82;53.37;94115.44;5065251;28;20086;-86
2023/07/19 01:24:24;;;;;;;5.78;3.63;;;;;;;22.81;53.43;94103.00;5066856;28;20315;-86
2023/07/19 01:26:50;;;;;;;4.85;3.00;;;;;;;22.84;53.12;94113.13;5067395;28;20070;-91
2023/07/19 01:29:16;;;;;;;5.68;3.33;;;;;;;22.80;53.21;94118.53;5066593;28;20071;-90
2023/07/19 01:31:41;;;;;;;6.65;3.60;;;;;;;22.81;53.09;94120.06;5066066;28;20274;-88
2023/07/19 01:34:07;;;;;;;7.93;3.40;;;;;;;22.74;53.25;94114.63;5066782;28;20319;-88
2023/07/19 01:36:33;;;;;;;11.00;3.75;;;;;;;22.72;53.33;94121.63;5067478;28;20028;-91
2023/07/19 01:38:58;;;;;;;6.68;3.40;;;;;;;22.74;53.12;94113.88;5066963;28;20021;-90
2023/07/19 01:41:24;;;;;;;7.13;3.60;;;;;;;22.72;53.29;94110.75;5067122;28;20037;-87
2023/07/19 01:43:49;;;;;;;6.53;4.03;;;;;;;22.64;53.65;94102.56;5066834;28;20331;-89
2023/07/19 01:46:28;;;;;;;6.05;3.40;;;;;;;22.68;53.79;94115.41;5068793;28;20215;-89
2023/07/19 01:49:03;;;;;;;8.23;4.05;;;;;;;22.77;52.98;94116.56;5071305;28;20040;-86
2023/07/19 01:51:35;;;;;;;5.05;3.00;;;;;;;22.79;53.05;94113.47;5068994;28;20047;-84
2023/07/19 01:54:07;;;;;;;5.28;3.53;;;;;;;22.78;53.02;94111.94;5069843;28;20045;-82
2023/07/19 01:56:59;;;;;;;6.95;3.25;;;;;;;22.83;52.89;94106.13;5069840;28;20031;-92
2023/07/19 01:59:31;;;;;;;8.88;3.05;;;;;;;22.87;52.96;94111.56;5075993;28;20092;-84
2023/07/19 02:02:14;;;;;;;10.67;3.70;;;;;;;22.92;52.87;94117.41;5072610;28;20084;-85
2023/07/19 02:04:55;;;;;;;7.75;3.63;;;;;;;22.97;53.30;94117.00;5070834;28;20656;-84
2023/07/19 02:07:26;;;;;;;7.75;3.47;;;;;;;22.93;53.20;94110.78;5065664;28;20020;-83
2023/07/19 02:10:19;;;;;;;6.40;3.17;;;;;;;22.89;53.78;94110.00;5065206;28;20065;-92
2023/07/19 02:12:48;;;;;;;5.35;3.13;;;;;;;22.88;53.64;94119.34;5065999;28;20025;-92
2023/07/19 02:15:14;;;;;;;7.10;3.53;;;;;;;22.87;53.57;94108.84;5065760;28;20020;-81
2023/07/19 02:17:39;;;;;;;5.57;3.10;;;;;;;22.75;54.41;94094.44;5065241;28;20047;-79
2023/07/19 02:20:05;;;;;;;6.18;3.38;;;;;;;22.65;55.02;94084.34;5064880;28;20067;-79
2023/07/19 02:22:31;;;;;;;8.05;3.40;;;;;;;22.57;55.93;94083.56;5064924;28;20073;-79
2023/07/19 02:24:56;;;;;;;11.45;3.85;;;;;;;22.55;56.00;94080.44;5064998;28;20036;-79
2023/07/19 02:27:22;;;;;;;6.22;3.70;;;;;;;22.56;55.64;94075.78;5065057;28;20045;-79
2023/07/19 02:29:47;;;;;;;6.22;3.47;;;;;;;22.49;55.98;94075.75;5065140;28;20223;-79
2023/07/19 02:32:13;;;;;;;6.78;3.67;;;;;;;22.42;56.51;94082.72;5064572;28;20025;-80
2023/07/19 02:34:38;;;;;;;10.05;4.45;;;;;;;22.40;56.66;94074.19;5064566;28;20021;-79
2023/07/19 02:37:04;;;;;;;7.82;4.15;;;;;;;22.35;56.78;94084.66;5064833;28;20078;-80
2023/07/19 02:39:30;;;;;;;17.17;5.50;;;;;;;22.30;56.47;94082.28;5064555;28;20040;-79
2023/07/19 02:41:56;;;;;;;10.98;4.45;;;;;;;22.28;56.26;94079.94;5064520;28;20044;-80
2023/07/19 02:44:22;;;;;;;12.90;5.28;;;;;;;22.14;56.47;94072.50;5064518;28;20021;-80
2023/07/19 02:46:47;;;;;;;10.68;4.20;;;;;;;22.13;57.25;94083.75;5064935;28;20031;-80
2023/07/19 02:49:13;;;;;;;8.65;4.45;;;;;;;22.04;57.08;94075.94;5064632;28;20021;-80
2023/07/19 02:51:39;;;;;;;7.88;3.90;;;;;;;21.99;56.83;94070.88;5064496;28;20017;-79
2023/07/19 02:54:04;;;;;;;12.48;4.82;;;;;;;21.99;57.34;94081.75;5063135;28;20055;-80
2023/07/19 02:56:29;;;;;;;10.50;4.57;;;;;;;21.96;57.84;94068.91;5064319;28;20024;-80
2023/07/19 02:58:55;;;;;;;16.50;5.00;;;;;;;21.90;57.97;94070.44;5064331;28;20051;-79
2023/07/19 03:01:20;;;;;;;9.68;4.03;;;;;;;21.92;58.03;94076.25;5064338;28;20021;-80
2023/07/19 03:03:46;;;;;;;6.00;3.63;;;;;;;21.86;57.82;94073.16;5064215;28;20033;-79
2023/07/19 03:06:11;;;;;;;9.85;3.88;;;;;;;21.83;58.26;94069.25;5064270;28;20035;-79
2023/07/19 03:08:37;;;;;;;6.97;3.95;;;;;;;21.79;57.65;94073.88;5064428;28;20021;-80
2023/07/19 03:11:08;;;;;;;5.78;3.50;;;;;;;21.78;56.29;94082.41;5064219;28;20031;-80
2023/07/19 03:13:34;;;;;;;4.95;3.60;;;;;;;21.76;57.09;94080.06;5064261;28;20052;-79
2023/07/19 03:16:00;;;;;;;7.15;3.25;;;;;;;21.77;55.59;94084.31;5063910;28;20376;-79
2023/07/19 03:18:25;;;;;;;6.30;3.88;;;;;;;21.74;55.98;94074.25;5064062;28;20311;-79
2023/07/19 03:21:00;;;;;;;8.00;4.00;;;;;;;21.73;56.46;94075.38;5064083;28;20020;-80
2023/07/19 03:23:27;;;;;;;9.93;3.78;;;;;;;21.69;56.91;94071.88;5063776;28;20323;-81
2023/07/19 03:25:56;;;;;;;7.35;4.15;;;;;;;21.66;56.98;94075.38;5063868;28;20100;-82
2023/07/19 03:28:22;;;;;;;6.57;3.72;;;;;;;21.67;57.46;94068.00;5064035;28;20313;-80
2023/07/19 03:30:47;;;;;;;10.07;4.20;;;;;;;21.63;58.24;94073.41;5063887;28;20017;-79
2023/07/19 03:33:13;;;;;;;7.03;4.35;;;;;;;21.63;58.55;94076.09;5062462;28;20044;-80
2023/07/19 03:35:39;;;;;;;15.85;4.30;;;;;;;21.62;58.63;94059.06;5063624;28;20096;-79
2023/07/19 03:38:04;;;;;;;14.20;5.15;;;;;;;21.59;59.59;94061.75;5063503;28;20024;-80
2023/07/19 03:40:30;;;;;;;15.45;5.53;;;;;;;21.61;60.08;94054.00;5063464;28;20339;-79
2023/07/19 03:42:55;;;;;;;26.83;5.22;;;;;;;21.63;59.83;94054.41;5063476;28;20040;-79
2023/07/19 03:45:21;;;;;;;10.80;4.82;;;;;;;21.66;59.89;94053.66;5062019;28;20043;-79
2023/07/19 03:47:46;;;;;;;9.32;4.15;;;;;;;21.66;59.92;94048.25;5063359;28;20024;-79
2023/07/19 03:50:12;;;;;;;19.20;5.13;;;;;;;21.71;60.05;94049.81;5063391;28;20223;-79
2023/07/19 03:52:37;;;;;;;35.40;5.35;;;;;;;21.74;60.23;94047.13;5063511;28;20028;-79
2023/07/19 03:55:04;;;;;;;15.25;6.40;;;;;;;21.74;60.54;94033.56;5063166;28;20037;-79
2023/07/19 03:57:29;;;;;;;23.02;4.97;;;;;;;21.78;60.98;94037.06;5063271;28;20067;-80
2023/07/19 03:59:55;;;;;;;14.73;4.68;;;;;;;21.82;61.33;94032.44;5061976;28;20021;-78
2023/07/19 04:02:22;;;;;;;24.30;4.70;;;;;;;21.83;61.83;94031.25;5063281;28;20319;-79
2023/07/19 04:04:48;;;;;;;11.57;4.20;;;;;;;21.90;61.97;94032.44;5063272;28;20025;-79
2023/07/19 04:07:14;;;;;;;14.25;5.32;;;;;;;21.95;62.10;94048.38;5063102;28;20329;-78
2023/07/19 04:09:40;;;;;;;13.18;5.55;;;;;;;21.93;61.51;94051.47;5063141;28;20025;-79
2023/07/19 04:12:06;;;;;;;10.18;5.97;;;;;;;21.94;61.60;94046.81;5063100;28;20337;-79
2023/07/19 04:14:32;;;;;;;12.65;6.10;;;;;;;22.01;61.65;94047.63;5061756;28;20028;-79
2023/07/19 04:16:57;;;;;;;9.65;5.18;;;;;;;22.07;62.12;94056.19;5062987;28;20020;-79
2023/07/19 04:19:23;;;;;;;11.70;5.50;;;;;;;22.07;62.44;94039.91;5062834;28;20021;-79
2023/07/19 04:21:48;;;;;;;12.77;5.57;;;;;;;22.08;62.29;94041.44;5062813;28;20052;-79
2023/07/19 04:24:14;;;;;;;21.02;6.03;;;;;;;22.13;62.77;94032.19;5062942;28;20032;-79
2023/07/19 04:26:39;;;;;;;22.65;6.60;;;;;;;22.18;62.64;94034.50;5062880;28;20310;-80
2023/07/19 04:29:05;;;;;;;13.68;7.05;;;;;;;22.20;62.57;94032.97;5062950;28;20314;-79
2023/07/19 04:31:30;;;;;;;17.98;5.88;;;;;;;22.26;62.73;94029.91;5062870;28;20021;-79
2023/07/19 04:33:56;;;;;;;23.55;6.20;;;;;;;22.29;62.77;94024.50;5062684;28;20062;-79
2023/07/19 04:36:21;;;;;;;16.05;6.00;;;;;;;22.32;62.29;94020.25;5062571;28;20130;-79
2023/07/19 04:38:47;;;;;;;21.15;5.80;;;;;;;22.41;62.18;94028.81;5062785;28;20196;-79
2023/07/19 04:41:12;;;;;;;17.90;6.22;;;;;;;22.52;61.38;94026.13;5062735;28;20092;-81
2023/07/19 04:43:38;;;;;;;25.10;6.28;;;;;;;22.61;61.65;94018.34;5062663;28;20025;-80
2023/07/19 04:46:04;;;;;;;13.52;6.60;;;;;;;22.67;61.54;94024.19;5061569;28;20096;-80
2023/07/19 04:48:30;;;;;;;19.15;5.88;;;;;;;22.69;61.08;94035.44;5061562;28;20024;-80
2023/07/19 04:50:56;;;;;;;25.27;6.65;;;;;;;22.68;61.81;94029.25;5062635;28;20029;-80
2023/07/19 04:53:24;;;;;;;14.95;6.43;;;;;;;22.61;61.36;94037.38;5062250;28;20025;-80
2023/07/19 04:55:51;;;;;;;23.92;7.22;;;;;;;22.56;61.87;94035.81;5064910;28;20025;-81
2023/07/19 04:58:17;;;;;;;24.60;7.25;;;;;;;22.53;61.29;94033.09;5066894;28;20032;-81
2023/07/19 05:00:42;;;;;;;19.85;7.65;;;;;;;22.63;61.05;94033.13;5066802;28;20032;-81
2023/07/19 05:03:08;;;;;;;20.40;6.78;;;;;;;22.69;62.48;94046.31;5066478;28;20092;-81
2023/07/19 05:05:33;;;;;;;19.05;6.15;;;;;;;22.71;61.18;94039.31;5066525;28;20040;-81
2023/07/19 05:07:59;;;;;;;29.90;8.00;;;;;;;22.70;60.74;94042.44;5066350;28;20024;-80
2023/07/19 05:10:25;;;;;;;20.67;7.38;;;;;;;22.73;61.70;94047.09;5066408;28;20031;-81
2023/07/19 05:12:50;;;;;;;20.77;6.40;;;;;;;22.72;61.19;94051.75;5066443;28;20082;-80
2023/07/19 05:15:16;;;;;;;19.92;6.60;;;;;;;22.72;60.55;94051.75;5066459;28;20032;-80
2023/07/19 05:17:41;;;;;;;30.92;7.97;;;;;;;22.71;60.14;94050.19;5066394;28;20056;-80
2023/07/19 05:20:07;;;;;;;18.25;6.30;;;;;;;22.71;60.47;94035.84;5066442;28;20025;-81
2023/07/19 05:22:33;;;;;;;13.70;7.43;;;;;;;22.77;60.65;94040.50;5066091;28;20032;-80
2023/07/19 05:24:58;;;;;;;15.82;7.40;;;;;;;22.80;61.16;94034.31;5066417;28;20025;-79
2023/07/19 05:27:24;;;;;;;15.85;7.30;;;;;;;22.87;60.61;94030.03;5065933;28;20154;-79
2023/07/19 05:29:49;;;;;;;22.83;7.28;;;;;;;22.93;59.81;94028.50;5066169;28;20029;-80
2023/07/19 05:32:15;;;;;;;22.90;7.30;;;;;;;22.98;59.62;94036.28;5066045;28;20242;-80
2023/07/19 05:34:41;;;;;;;29.70;7.45;;;;;;;23.01;59.43;94033.56;5065861;28;20020;-79
2023/07/19 05:37:07;;;;;;;16.10;7.05;;;;;;;23.07;59.47;94033.19;5065680;28;20028;-79
2023/07/19 05:39:35;;;;;;;22.00;7.05;;;;;;;23.17;59.52;94032.41;5065856;28;20021;-79
2023/07/19 05:42:01;;;;;;;31.75;8.02;;;;;;;23.29;60.10;94023.09;5065789;28;20223;-80
2023/07/19 05:44:26;;;;;;;20.15;6.47;;;;;;;23.30;59.94;94030.81;5065715;28;20021;-80
2023/07/19 05:46:52;;;;;;;15.77;6.13;;;;;;;23.34;59.43;94019.97;5065745;28;20017;-81
2023/07/19 05:49:18;;;;;;;15.25;6.60;;;;;;;23.42;59.10;94022.25;5065563;28;20091;-80
2023/07/19 05:51:44;;;;;;;16.15;6.53;;;;;;;23.53;58.35;94016.03;5065509;28;20017;-80
2023/07/19 05:54:10;;;;;;;20.83;6.38;;;;;;;23.58;58.55;94018.38;5065605;28;20051;-80
2023/07/19 05:56:36;;;;;;;17.15;5.93;;;;;;;23.65;57.86;94015.63;5065501;28;20028;-81
2023/07/19 05:59:02;;;;;;;20.23;6.35;;;;;;;23.76;57.23;94019.09;5065543;28;20065;-80
2023/07/19 06:01:29;;;;;;;13.73;6.07;;;;;;;23.83;56.59;94023.75;5064492;28;20029;-80
2023/07/19 06:03:54;;;;;;;13.75;5.00;;;;;;;23.85;56.21;94026.09;5065289;28;20161;-80
2023/07/19 06:06:20;;;;;;;14.98;5.90;;;;;;;23.99;56.56;94013.19;5064869;28;20055;-76
2023/07/19 06:08:47;;;;;;;15.45;5.68;;;;;;;24.08;55.79;94023.69;5065245;28;20212;-78
2023/07/19 06:11:13;;;;;;;13.63;5.65;;;;;;;24.26;54.94;94025.53;5065193;28;20092;-77
2023/07/19 06:13:38;;;;;;;9.32;4.88;;;;;;;24.36;53.99;94022.00;5065178;28;20032;-76
2023/07/19 06:16:04;;;;;;;9.25;5.13;;;;;;;24.34;52.89;94032.50;5065249;28;20136;-77
2023/07/19 06:18:30;;;;;;;10.13;4.88;;;;;;;24.39;52.39;94037.56;5064973;28;20018;-75
2023/07/19 06:20:55;;;;;;;13.38;5.32;;;;;;;24.45;52.16;94029.75;5064966;28;20029;-76
2023/07/19 06:23:21;;;;;;;23.67;6.22;;;;;;;24.49;53.20;94028.56;5065327;28;20040;-76
2023/07/19 06:25:48;;;;;;;21.65;5.25;;;;;;;24.54;54.30;94021.94;5064901;28;20336;-77
2023/07/19 06:28:13;;;;;;;24.33;5.95;;;;;;;24.53;53.87;94021.16;5064881;28;20063;-74
2023/07/19 06:30:39;;;;;;;17.17;5.60;;;;;;;24.58;53.09;94017.22;5064735;28;20020;-75
2023/07/19 06:33:04;;;;;;;11.00;5.78;;;;;;;24.66;53.12;94021.47;5064891;28;20104;-74
2023/07/19 06:35:29;;;;;;;19.27;6.13;;;;;;;24.73;53.02;94017.91;5064674;28;20367;-74
2023/07/19 06:37:55;;;;;;;20.23;5.57;;;;;;;24.76;51.85;94025.31;5064686;28;20108;-77
2023/07/19 06:40:20;;;;;;;14.00;4.72;;;;;;;24.75;51.42;94018.28;5064860;28;20146;-77
2023/07/19 06:42:46;;;;;;;15.55;6.10;;;;;;;24.81;52.41;94016.69;5064477;28;20025;-77
2023/07/19 06:45:11;;;;;;;20.27;5.32;;;;;;;24.87;53.46;94011.59;5064645;28;20025;-77
2023/07/19 06:47:37;;;;;;;18.25;5.25;;;;;;;24.96;53.53;94018.16;5062631;28;20051;-77
2023/07/19 06:50:03;;;;;;;14.70;5.18;;;;;;;24.92;53.56;94014.66;5062860;28;20156;-78
2023/07/19 06:52:28;;;;;;;17.48;5.53;;;;;;;25.02;53.51;94019.25;5063063;28;20112;-78
2023/07/19 06:54:54;;;;;;;19.35;6.20;;;;;;;25.19;51.96;94022.25;5064376;28;20358;-78
2023/07/19 06:57:20;;;;;;;15.07;5.75;;;;;;;25.15;51.91;94021.50;5064094;28;20258;-79
2023/07/19 06:59:49;;;;;;;22.02;6.03;;;;;;;25.26;52.19;94021.44;5064203;28;20108;-79
2023/07/19 07:02:15;;;;;;;9.77;5.05;;;;;;;25.33;51.81;94027.59;5064238;28;20025;-78
2023/07/19 07:04:47;;;;;;;13.82;5.55;;;;;;;25.47;51.44;94032.16;5064423;28;20052;-78
2023/07/19 07:08:09;;;;;;;16.48;5.72;;;;;;;25.50;49.94;94022.38;5063897;28;20262;-79
2023/07/19 07:10:35;;;;;;;25.10;5.32;;;;;;;25.59;49.86;94031.66;5040567;28;20013;-79
2023/07/19 07:13:00;;;;;;;17.38;5.43;;;;;;;25.65;49.31;94021.09;5058585;28;20342;-79
2023/07/19 07:15:25;;;;;;;8.85;4.88;;;;;;;25.73;48.59;94016.31;5063663;28;20363;-79
2023/07/19 07:17:51;;;;;;;13.05;5.85;;;;;;;25.83;48.82;94023.63;5063915;28;20095;-79
2023/07/19 07:20:17;;;;;;;19.25;5.55;;;;;;;25.91;48.61;94027.06;5063173;28;20028;-78
2023/07/19 07:22:42;;;;;;;9.55;5.45;;;;;;;25.93;48.78;94021.97;5063691;28;20041;-78
2023/07/19 07:25:08;;;;;;;12.85;5.47;;;;;;;25.97;48.17;94022.69;5063453;28;20219;-79
2023/07/19 07:27:34;;;;;;;16.77;6.47;;;;;;;26.01;48.10;94016.03;5061886;28;20057;-79
2023/07/19 07:29:59;;;;;;;15.02;5.78;;;;;;;26.09;49.38;94011.25;5061971;28;20036;-79
2023/07/19 07:32:25;;;;;;;19.70;5.93;;;;;;;26.19;48.13;94015.81;5061793;28;20200;-78
2023/07/19 07:34:50;;;;;;;19.95;6.40;;;;;;;26.28;47.79;94022.75;5062060;28;20030;-78
2023/07/19 07:37:16;;;;;;;15.07;5.28;;;;;;;26.40;46.61;94009.31;5061992;28;20021;-77
2023/07/19 07:39:41;;;;;;;14.05;4.80;;;;;;;26.51;45.99;94017.34;5061774;28;20052;-78
2023/07/19 07:42:09;;;;;;;14.25;4.70;;;;;;;26.63;45.91;94009.81;5061999;28;20099;-78
2023/07/19 07:44:34;;;;;;;9.35;4.95;;;;;;;26.67;45.78;93994.13;5063550;28;20025;-78
2023/07/19 07:47:00;;;;;;;15.68;5.25;;;;;;;26.75;45.81;93992.84;5062200;28;20048;-78
2023/07/19 07:49:25;;;;;;;12.50;5.22;;;;;;;26.79;45.74;94001.78;5063340;28;20215;-78
2023/07/19 07:51:51;;;;;;;10.13;5.57;;;;;;;26.73;45.43;93987.78;5063602;28;20017;-78
2023/07/19 07:54:17;;;;;;;8.27;4.85;;;;;;;26.87;45.69;93981.34;5063292;28;20369;-79
2023/07/19 07:56:43;;;;;;;11.43;5.40;;;;;;;27.06;46.00;93985.31;5063069;28;20239;-78
2023/07/19 07:59:09;;;;;;;19.83;5.88;;;;;;;27.21;44.09;93983.91;5063171;28;20056;-78
2023/07/19 08:01:34;;;;;;;15.45;4.93;;;;;;;27.31;43.68;93976.72;5063341;28;20036;-78
2023/07/19 08:04:01;;;;;;;15.38;5.13;;;;;;;27.34;43.00;93978.63;5063345;28;20383;-78
2023/07/19 08:06:26;;;;;;;13.35;4.95;;;;;;;27.40;43.17;93985.16;5063283;28;20231;-77
2023/07/19 08:08:52;;;;;;;10.55;5.30;;;;;;;27.48;43.34;93974.06;5063292;28;20088;-78
2023/07/19 08:11:17;;;;;;;18.85;5.22;;;;;;;27.53;43.73;93973.59;5063012;28;20025;-79
2023/07/19 08:13:44;;;;;;;10.25;4.70;;;;;;;27.61;43.34;93972.28;5062844;28;20059;-78
2023/07/19 08:16:10;;;;;;;12.07;5.70;;;;;;;27.78;43.27;93967.66;5063121;28;20024;-78
2023/07/19 08:18:36;;;;;;;18.98;5.45;;;;;;;27.90;42.42;93967.03;5062866;28;20262;-79
2023/07/19 08:21:02;;;;;;;7.57;5.32;;;;;;;28.01;42.77;93966.84;5062798;28;20314;-79
2023/07/19 08:23:28;;;;;;;13.27;5.13;;;;;;;28.13;42.86;93965.41;5062819;28;20029;-79
2023/07/19 08:25:57;;;;;;;10.35;4.53;;;;;;;28.25;42.38;93966.72;5062659;28;20043;-79
2023/07/19 08:28:26;;;;;;;12.30;5.05;;;;;;;28.39;41.80;93971.91;5062635;28;20307;-79
2023/07/19 08:30:52;;;;;;;12.27;5.45;;;;;;;28.52;41.11;93970.09;5062663;28;20104;-79
2023/07/19 08:33:21;;;;;;;14.55;5.60;;;;;;;28.65;40.46;93983.13;5063016;28;20032;-79
2023/07/19 08:35:47;;;;;;;18.40;5.65;;;;;;;28.69;39.32;93972.84;5063034;28;20017;-79
2023/07/19 08:38:13;;;;;;;18.60;5.20;;;;;;;28.66;39.46;93976.44;5061409;28;20024;-80
2023/07/19 08:40:39;;;;;;;10.02;4.57;;;;;;;28.66;39.40;93979.97;5061482;28;20028;-79
2023/07/19 08:43:06;;;;;;;15.95;5.05;;;;;;;28.64;40.23;93965.91;5062613;28;20028;-79
2023/07/19 08:45:35;;;;;;;9.38;4.72;;;;;;;28.71;40.37;93970.47;5062685;28;20039;-79
2023/07/19 08:48:00;;;;;;;24.20;5.53;;;;;;;28.81;40.18;93961.22;5062774;28;20025;-79
2023/07/19 08:50:27;;;;;;;10.35;5.20;;;;;;;28.87;39.87;93956.75;5062460;28;20025;-79
2023/07/19 08:52:53;;;;;;;14.45;5.13;;;;;;;28.96;39.07;93951.44;5062600;28;20045;-80
2023/07/19 08:55:21;;;;;;;16.15;6.28;;;;;;;29.05;38.95;93958.31;5062573;28;20053;-79
2023/07/19 08:57:46;;;;;;;12.32;5.60;;;;;;;29.07;38.31;93948.44;5062433;28;20282;-80
2023/07/19 09:00:16;;;;;;;16.88;5.53;;;;;;;29.26;39.69;93949.56;5062580;28;20033;-80
2023/07/19 09:02:42;;;;;;;12.07;5.13;;;;;;;29.40;38.28;93946.44;5062544;28;20029;-79
2023/07/19 09:05:09;;;;;;;11.57;4.85;;;;;;;29.53;38.17;93940.22;5062300;28;20036;-79
2023/07/19 09:07:36;;;;;;;14.43;6.25;;;;;;;29.67;38.93;93930.84;5062436;28;20059;-79
2023/07/19 09:10:03;;;;;;;9.88;4.38;;;;;;;29.83;38.61;93933.56;5062526;28;20294;-79
2023/07/19 09:12:39;;;;;;;9.43;5.20;;;;;;;29.97;37.35;93932.38;5062552;28;20216;-79
2023/07/19 09:15:06;;;;;;;14.70;5.00;;;;;;;30.02;36.69;93931.06;5062456;28;20025;-79
2023/07/19 09:17:43;;;;;;;12.98;4.97;;;;;;;30.12;36.67;93932.72;5062326;28;20020;-79
2023/07/19 09:20:09;;;;;;;11.00;4.07;;;;;;;30.19;36.54;93929.78;5060964;28;20029;-79
2023/07/19 09:22:39;;;;;;;15.07;5.22;;;;;;;30.30;36.57;93926.75;5061972;28;20040;-79
2023/07/19 09:25:06;;;;;;;16.83;5.55;;;;;;;30.35;35.84;93929.72;5062377;28;20029;-78
2023/07/19 09:27:32;;;;;;;13.70;5.00;;;;;;;30.31;36.44;93928.28;5062222;28;20196;-79
2023/07/19 09:29:58;;;;;;;9.63;5.40;;;;;;;30.19;35.17;93935.28;5062046;28;20033;-78
2023/07/19 09:32:24;;;;;;;12.65;4.63;;;;;;;30.19;35.33;93918.78;5062196;28;20082;-79
2023/07/19 09:34:57;;;;;;;12.55;5.20;;;;;;;30.16;35.67;93922.41;5062308;28;20028;-78
2023/07/19 09:37:24;;;;;;;9.90;5.53;;;;;;;30.16;35.67;93919.66;5062020;28;20095;-79
2023/07/19 09:39:52;;;;;;;17.23;4.80;;;;;;;30.29;35.86;93914.19;5062253;28;20079;-78
2023/07/19 09:42:24;;;;;;;16.58;5.15;;;;;;;30.36;35.89;93920.25;5063708;28;20266;-79
2023/07/19 09:44:49;;;;;;;;;;;;;;;30.46;36.48;93917.63;5066463;28;20028;-79
2023/07/19 09:47:15;;;;;;;10.60;4.55;;;;;;;30.45;34.70;93916.88;5065694;28;19958;-78
2023/07/19 09:49:45;;;;;;;9.70;5.03;;;;;;;30.44;34.29;93915.31;5065545;28;20020;-79
2023/07/19 09:52:19;;;;;;;10.80;5.53;;;;;;;30.45;34.28;93905.88;5065663;28;20196;-78
2023/07/19 09:54:45;;;;;;;13.27;5.40;;;;;;;30.64;35.66;93895.06;5065535;28;20228;-78
2023/07/19 09:57:11;;;;;;;15.82;5.25;;;;;;;30.69;34.73;93897.25;5065558;28;20226;-79
2023/07/19 09:59:50;;;;;;;15.82;6.03;;;;;;;30.81;34.76;93899.22;5065475;28;20025;-80
2023/07/19 10:02:16;;;;;;;9.32;5.68;;;;;;;30.89;34.58;93897.81;5065473;28;20033;-77
2023/07/19 10:04:44;;;;;;;14.73;5.22;;;;;;;30.99;31.86;93882.16;5065410;28;20033;-78
2023/07/19 10:07:12;;;;;;;9.38;4.82;;;;;;;31.01;30.26;93887.22;5065427;28;20025;-79
2023/07/19 10:09:43;;;;;;;20.95;5.65;;;;;;;31.02;31.29;93886.78;5064120;28;20021;-78
2023/07/19 10:12:17;;;;;;;8.57;4.70;;;;;;;30.98;30.19;93888.88;5065168;28;20017;-79
2023/07/19 10:15:06;;;;;;;11.77;5.25;;;;;;;30.78;30.92;93889.13;5065162;28;20028;-79
2023/07/19 10:17:53;;;;;;;17.13;5.30;;;;;;;30.72;30.65;93874.38;5065206;28;20021;-79
2023/07/19 10:20:26;;;;;;;12.45;5.00;;;;;;;30.76;30.66;93883.28;5065284;28;20032;-78
2023/07/19 10:22:56;;;;;;;14.27;4.65;;;;;;;30.84;29.47;93875.53;5065164;28;20091;-79
2023/07/19 10:25:45;;;;;;;14.85;4.95;;;;;;;30.91;30.06;93881.63;5065087;28;20035;-78
2023/07/19 10:28:12;;;;;;;18.73;5.72;;;;;;;31.02;29.95;93886.00;5065067;28;20035;-78
2023/07/19 10:30:44;;;;;;;19.30;5.68;;;;;;;31.08;29.73;93868.50;5065072;28;20013;-78
2023/07/19 10:33:10;;;;;;;16.05;5.20;;;;;;;31.18;30.18;93866.56;5065024;28;20025;-79
2023/07/19 10:35:56;;;;;;;9.25;5.20;;;;;;;31.19;30.92;93863.38;5064851;28;20214;-78
2023/07/19 10:38:27;;;;;;;12.85;4.65;;;;;;;31.26;28.85;93862.34;5064305;28;20048;-79
2023/07/19 10:40:55;;;;;;;10.90;5.00;;;;;;;31.35;27.76;93869.94;5064738;28;20021;-79
2023/07/19 10:43:20;;;;;;;19.42;5.35;;;;;;;31.33;28.19;93862.13;5063527;28;20033;-79
2023/07/19 10:45:46;;;;;;;11.07;5.15;;;;;;;31.43;30.03;93846.44;5064590;28;20024;-78
2023/07/19 10:48:12;;;;;;;15.55;5.20;;;;;;;31.48;27.63;93858.88;5064595;28;20025;-79
2023/07/19 10:50:38;;;;;;;18.73;6.22;;;;;;;31.48;27.75;93861.63;5064595;28;20035;-79
2023/07/19 10:53:04;;;;;;;10.40;5.18;;;;;;;31.50;29.01;93861.97;5063227;28;20024;-78
2023/07/19 10:55:30;;;;;;;14.55;5.43;;;;;;;31.58;28.28;93860.47;5064444;28;20041;-79
2023/07/19 10:57:56;;;;;;;9.52;4.93;;;;;;;31.54;29.89;93854.34;5064457;28;20058;-79
2023/07/19 11:00:21;;;;;;;15.25;5.55;;;;;;;31.59;31.22;93859.28;5063158;28;20046;-79
2023/07/19 11:02:47;;;;;;;19.10;5.55;;;;;;;31.65;29.16;93851.97;5064323;28;20319;-79
2023/07/19 11:05:13;;;;;;;8.93;4.85;;;;;;;31.58;30.07;93858.50;5063254;28;20315;-79
2023/07/19 11:07:38;;;;;;;15.75;4.68;;;;;;;31.61;31.80;93861.56;5064355;28;20176;-79
2023/07/19 11:10:04;;;;;;;10.48;4.47;;;;;;;31.73;30.13;93847.72;5062776;28;20028;-79
2023/07/19 11:12:31;;;;;;;12.88;4.93;;;;;;;31.77;30.36;93851.13;5062928;28;20021;-79
2023/07/19 11:15:01;;;;;;;12.98;5.10;;;;;;;31.78;30.50;93858.16;5064142;28;20016;-79
2023/07/19 11:17:30;;;;;;;13.55;5.10;;;;;;;31.83;29.42;93853.28;5064143;28;20025;-79
2023/07/19 11:19:58;;;;;;;12.52;4.95;;;;;;;31.96;30.62;93852.00;5064021;28;20048;-79
2023/07/19 11:22:26;;;;;;;10.25;5.15;;;;;;;31.96;30.37;93846.47;5063879;28;20021;-79
2023/07/19 11:24:53;;;;;;;10.57;4.78;;;;;;;32.04;29.53;93835.97;5063926;28;20021;-79
2023/07/19 11:27:36;;;;;;;7.97;4.20;;;;;;;32.12;29.74;93840.00;5064112;28;20319;-79
2023/07/19 11:30:02;;;;;;;9.25;4.35;;;;;;;32.14;29.15;93840.31;5063730;28;20025;-78